Patterson, CA (95363)

10:24 AM PST on December 08, 2016 (GMT -0800)
Covanta Energy | | Change Station

Elev 282 ft 37.39 °N, 121.14 °W | Updated 4 minutes ago

Overcast
Overcast
47.8 °F
Feels Like 46 °F
N
5.1
Wind Variable Wind from ESE

Today
High -- | Low -- °F
--% Chance of Precip.
Yesterday
High -- | Low -- °F
Precip. -- in
Pressure 30.20 in
Visibility 4.0 miles
Clouds Scattered Clouds 1000 ft
Mostly Cloudy 2600 ft
Overcast 6000 ft
Windchill 46 °F
Dew Point 48 °F
Humidity 99%
Rainfall 0.18 in
Snow Depth Not available.
7:07 AM 4:46 PM
Waxing Gibbous, 65% visible
METAR KMOD 081753Z 13009KT 4SM BR SCT010 BKN026 OVC060 11/08 A3020 RMK AO2 RAE09 SLP227 P0000 60012 T01060083 10106 20083 51010
Pressure 30.20 in
Visibility 4.0 miles
Clouds Scattered Clouds 1000 ft
Mostly Cloudy 2600 ft
Overcast 6000 ft
Windchill 46 °F
Dew Point 48 °F
Humidity 99%
Rainfall 0.18 in
Snow Depth Not available.
7:07 AM 4:46 PM
Waxing Gibbous, 65% visible
METAR KMOD 081753Z 13009KT 4SM BR SCT010 BKN026 OVC060 11/08 A3020 RMK AO2 RAE09 SLP227 P0000 60012 T01060083 10106 20083 51010

10-Day Weather Forecast

Almanac

Astronomy

Dec. 08, 2016 Rise Set
Actual Time
Civil Twilight
Nautical Twilight
Astronomical Twilight
Moon
Length of Visible Light
Length of Day
Tomorrow will be .
, % of the Moon is Illuminated

Today's Extremes

State Highs State Lows

Community

WunderPhotos

Upload Photos

1,956,277 photos uploaded!

WunderBlog® & News

Nearby

Air Quality

  Air Quality AQ Index Pollutant
Not available.

Snow Depth

Station Depth Elevation

Earthquake Activity

City Distance Mag. Time & Date
Minimum magnitude displayed is 2.5.

Coastal Water Temperatures

Place Temperature

Stations

Nearby Weather Stations

Station Location Temp. Windchill Dew Point Humidity Wind Precip. Elev Updated Type
                   

Watches & Warnings

There are currently no watches in effect.